Etusivu
METAR-TAF:

METAR-TAF

Lentoasemat :

Bissau, Guinea-Bissau

Leveyspiiri: 11-53N, Pituuspiiri: 015-39W, korkeus merenpinnasta: 39 m

Tämänhetkinen sää

Tämä raportti tehtiin 1 tunti ja 13 minuuttia sitten, kello 00.00 UTC
Tuuli 2 kn eri suunnista
Lämpötila 28°C
Kosteus 79%
Ilmanpaine 1013 hPa
Näkyvyys: 8000 m
Muutamia pilviä 1000 ft:n korkeudessa

METAR: GGOV 150000Z VRB02KT 8000 FEW010 28/24 Q1013 NOSIG

Aika: 01:13 (01:13 UTC)

Sääennuste

Tämä raportti tehtiin 2 tuntia ja 13 minuuttia sitten, kello 23.00 UTC
Ennuste voimassa 15. päivästä klo 00 UTC - 15. päivään klo 24 UTC
Tuuli 6 kn etelästä/lounaasta
Näkyvyys: 7000 m
Muutamia pilviä 1200 ft:n korkeudessa
Todennäköisyys 40% :
Ajoittain
15. päivästä klo 03 UTC - 15. päivään klo 08 UTC
Näkyvyys: 4000 m
Hajanaisia pilviä 2000 ft:n korkeudessa, Cumulonimbus.
ukkosmyrsky, sadetta,

TAF: GGOV 142300Z 1500/1524 20006KT 7000 FEW012 PROB40 TEMPO 1503/1508 4000 TSRA BKNO10 SCT020CB

Säähavainnot ja -ennusteet yli 4000 lentoasemalta (METAR- ja TAF-raportit).

Käytössä olevat sääasemat on merkitty karttaan keltaisilla ja punaisilla pisteillä.

Aseta hiiri pisteen päälle nähdäksesi sääaseman nimen.

Klikkaa sitten nähdäksesi säähavainnot ja -ennusteet.

Kartan vaihtaminen: klikkaa mustalla rastilla varustettuja vihreitä pisteitä, niin voit zoomata sisään; viivalla varustettua vihreää pistettä, niin voit zoomata ulos tai vihreitä nuolia, niin pääset viereisille kartoille.


METAR-TAF: